createdAt,value
2022-08-31T00:01:59.522Z,3.13
2022-08-31T00:12:52.346Z,3.13
2022-08-31T00:23:53.300Z,3.13
2022-08-31T00:34:53.529Z,3.12
2022-08-31T00:45:55.400Z,3.12
2022-08-31T00:56:56.614Z,3.12
2022-08-31T01:07:58.496Z,3.11
2022-08-31T01:19:00.302Z,3.11
2022-08-31T01:30:01.339Z,3.11
2022-08-31T01:40:58.162Z,3.10
2022-08-31T01:51:55.450Z,3.10
2022-08-31T02:02:57.475Z,3.10
2022-08-31T02:13:58.576Z,3.10
2022-08-31T02:25:00.099Z,3.09
2022-08-31T02:36:01.905Z,3.09
2022-08-31T02:46:40.290Z,3.08
2022-08-31T02:57:17.150Z,3.07
2022-08-31T03:08:18.545Z,3.07
2022-08-31T03:18:56.271Z,3.06
2022-08-31T03:29:34.020Z,3.05
2022-08-31T03:40:29.871Z,3.05
2022-08-31T03:51:14.416Z,3.04
2022-08-31T04:02:15.253Z,3.05
2022-08-31T04:13:16.534Z,3.04
2022-08-31T04:23:54.306Z,3.04
2022-08-31T04:34:56.340Z,3.04
2022-08-31T04:45:54.995Z,3.04
2022-08-31T04:56:56.892Z,3.05
2022-08-31T05:07:59.592Z,3.05
2022-08-31T05:19:01.818Z,3.06
2022-08-31T05:30:02.214Z,3.08
2022-08-31T05:41:03.742Z,3.10
2022-08-31T05:52:05.505Z,3.14
2022-08-31T06:02:54.037Z,3.15
2022-08-31T06:13:56.883Z,3.17
2022-08-31T06:24:58.643Z,3.19
2022-08-31T06:35:55.086Z,3.22
2022-08-31T06:46:56.666Z,3.25
2022-08-31T06:57:56.158Z,3.26
2022-08-31T07:08:54.544Z,3.31
2022-08-31T07:19:55.807Z,3.35
2022-08-31T07:30:53.216Z,3.34
2022-08-31T07:41:48.412Z,3.30
2022-08-31T07:52:41.071Z,3.37
2022-08-31T08:03:40.262Z,3.33
2022-08-31T08:14:14.508Z,3.29
2022-08-31T08:25:13.785Z,3.29
2022-08-31T08:36:16.090Z,3.29
2022-08-31T08:47:14.947Z,3.34
2022-08-31T08:58:14.689Z,3.32
2022-08-31T09:09:14.849Z,3.33
2022-08-31T09:20:15.316Z,3.32
2022-08-31T09:31:09.539Z,3.32
2022-08-31T09:41:46.451Z,3.33
2022-08-31T09:52:36.591Z,3.33
2022-08-31T10:03:37.127Z,3.33
2022-08-31T10:14:31.615Z,3.33
2022-08-31T10:25:30.764Z,3.34
2022-08-31T10:36:27.335Z,3.34
2022-08-31T10:47:03.358Z,3.35
2022-08-31T10:57:38.944Z,3.35
2022-08-31T11:08:39.213Z,3.35
2022-08-31T11:19:38.307Z,3.34
2022-08-31T11:30:10.716Z,3.33
2022-08-31T11:40:51.739Z,3.33
2022-08-31T11:51:41.488Z,3.34
2022-08-31T12:02:41.608Z,3.33
2022-08-31T12:13:38.694Z,3.33
2022-08-31T12:24:29.747Z,3.33
2022-08-31T12:35:03.483Z,3.36
2022-08-31T12:45:39.992Z,3.36
2022-08-31T12:56:14.337Z,3.34
2022-08-31T13:07:12.240Z,3.33
2022-08-31T13:18:11.240Z,3.34
2022-08-31T13:29:00.342Z,3.34
2022-08-31T13:39:56.330Z,3.36
2022-08-31T13:50:53.499Z,3.34
2022-08-31T14:01:48.084Z,3.38
2022-08-31T14:12:44.588Z,3.38
2022-08-31T14:23:39.359Z,3.37
2022-08-31T14:34:27.173Z,3.34
2022-08-31T14:45:26.025Z,3.35
2022-08-31T14:56:16.413Z,3.34
2022-08-31T15:07:15.004Z,3.34
2022-08-31T15:18:11.679Z,3.34
2022-08-31T15:29:11.766Z,3.33
2022-08-31T15:40:08.065Z,3.32
2022-08-31T15:51:06.771Z,3.31
2022-08-31T16:02:01.393Z,3.29
2022-08-31T16:12:57.951Z,3.29
2022-08-31T16:23:49.154Z,3.27
2022-08-31T16:34:48.257Z,3.27
2022-08-31T16:45:31.579Z,3.26
2022-08-31T16:56:26.327Z,3.25
2022-08-31T17:07:24.416Z,3.25
2022-08-31T17:18:23.734Z,3.23
2022-08-31T17:29:14.763Z,3.23
2022-08-31T17:40:10.199Z,3.22
2022-08-31T17:51:11.679Z,3.21
2022-08-31T18:02:03.800Z,3.21
2022-08-31T18:13:01.579Z,3.20
2022-08-31T18:23:48.161Z,3.19
2022-08-31T18:34:36.493Z,3.18
2022-08-31T18:45:25.725Z,3.17
2022-08-31T18:56:19.563Z,3.17
2022-08-31T19:07:09.231Z,3.16
2022-08-31T19:18:05.017Z,3.16
2022-08-31T19:28:59.674Z,3.15
2022-08-31T19:39:57.446Z,3.15
2022-08-31T19:50:57.155Z,3.15
2022-08-31T20:01:53.034Z,3.14
2022-08-31T20:12:49.513Z,3.14
2022-08-31T20:23:47.702Z,3.13
2022-08-31T20:34:47.589Z,3.13
2022-08-31T20:45:44.295Z,3.12
2022-08-31T20:56:42.996Z,3.12
2022-08-31T21:07:40.031Z,3.12
2022-08-31T21:18:38.373Z,3.11
2022-08-31T21:29:36.890Z,3.11
2022-08-31T21:40:36.741Z,3.10
2022-08-31T21:51:37.678Z,3.10
2022-08-31T22:02:28.563Z,3.10
2022-08-31T22:13:24.532Z,3.09
2022-08-31T22:24:27.349Z,3.09
2022-08-31T22:35:26.498Z,3.09
2022-08-31T22:46:20.519Z,3.08
2022-08-31T22:57:19.742Z,3.08
2022-08-31T23:08:17.872Z,3.07
2022-08-31T23:19:19.652Z,3.07
2022-08-31T23:30:13.080Z,3.07
2022-08-31T23:41:13.756Z,3.07
2022-08-31T23:52:10.934Z,3.06
